MSC Lea — 9HA2639 — position and weather

sailwx.info

Track history (hours):
 
Tides and Currents Weather Stations Pressure Air Temp Water Temp Dewpoint Dewpoint Depression Visibility Wind Speed Wind Dir Waves Ship Positions

MSC Lea

Last reported at 2016-Sep-30 17:31 UTC. Time now 2016-Oct-01 07:00 UTC.
Position N 32°49' E 035°01'.

Length 217 m; draft 11.4 m.

Type: Ship (hazmat cat A). MMSI: 215101000.

Date/timePositionNaut miles runAvg speedWind from/ knotsBaromVisibWave heightAir tempDewpointWater temp
2016-Sep-30 17:31N 32°49' E 035°01'0 0.0
2016-Sep-30 16:32N 32°49' E 035°01'0 0.0
2016-Sep-30 14:33N 32°49' E 035°01'0 0.0
2016-Sep-30 13:31N 32°49' E 035°01'0 0.0
2016-Sep-30 10:33N 32°49' E 035°01'0 0.0
2016-Sep-30 08:31N 32°49' E 035°01'0 0.0
2016-Sep-30 06:32N 32°49' E 035°01'0 0.0
2016-Sep-30 03:31N 32°49' E 035°01'0 0.0
2016-Sep-30 02:32N 32°49' E 035°01'0 0.0
2016-Sep-29 23:31N 32°49' E 035°01'0 0.0
2016-Sep-29 21:32N 32°49' E 035°01'1 0.6
2016-Sep-29 20:33N 32°49' E 035°01'3 3.4
2016-Sep-29 19:33N 32°52' E 034°58'1 0.4
2016-Sep-29 16:32N 32°53' E 034°59'0 0.0
2016-Sep-29 13:31N 32°53' E 034°59'0 0.0
2016-Sep-29 08:31N 32°53' E 034°59'0 0.0
2016-Sep-29 07:32N 32°53' E 034°59'  
2016-Sep-25 21:33N 37°56' E 015°36'34 8.4
2016-Sep-25 17:33N 38°27' E 015°54'1 1.0
2016-Sep-25 16:28N 38°28' E 015°54'0 0.0
2016-Sep-25 15:31N 38°28' E 015°54'0 0.0
2016-Sep-25 14:32N 38°28' E 015°54'0 0.0
2016-Sep-25 12:33N 38°28' E 015°54'0 0.0
2016-Sep-25 11:31N 38°28' E 015°54'0 0.0
2016-Sep-25 10:32N 38°28' E 015°54'0 0.0
2016-Sep-25 09:33N 38°28' E 015°54'0 0.0
2016-Sep-25 07:28N 38°28' E 015°54'0 0.0
2016-Sep-25 04:33N 38°28' E 015°54'0 0.0
2016-Sep-25 00:33N 38°28' E 015°54'0 0.0
2016-Sep-24 22:31N 38°28' E 015°54'0 0.0
2016-Sep-24 21:29N 38°28' E 015°54'0 0.0
2016-Sep-24 19:33N 38°28' E 015°54'0 0.0
2016-Sep-24 18:34N 38°28' E 015°54'0 0.0
2016-Sep-24 17:31N 38°28' E 015°54'0 0.0
2016-Sep-24 16:32N 38°28' E 015°54'1 0.7
2016-Sep-24 14:33N 38°27' E 015°53'6 3.1
2016-Sep-24 12:33N 38°31' E 015°48'2 0.9
2016-Sep-24 10:33N 38°31' E 015°45'1 0.7
2016-Sep-24 09:34N 38°30' E 015°45'27 4.6
2016-Sep-24 03:33N 38°03' E 015°36'6 6.1
2016-Sep-24 02:31N 37°57' E 015°37'1111.1
2016-Sep-24 01:33N 37°48' E 015°43'1110.6
2016-Sep-24 00:33N 37°42' E 015°54'  
Track history (hours):
 
Tides and Currents Weather Stations Pressure Air Temp Water Temp Dewpoint Dewpoint Depression Visibility Wind Speed Wind Dir Waves Ship Positions

MSC Lea

Last reported at 2016-Sep-30 17:31 UTC. Time now 2016-Oct-01 07:00 UTC.
Position N 32°49' E 035°01'.

Length 217 m; draft 11.4 m.

Type: Ship (hazmat cat A). MMSI: 215101000.

Date/timePositionNaut miles runAvg speedWind from/ knotsBaromVisibWave heightAir tempDewpointWater temp
2016-Sep-30 17:31N 32°49' E 035°01'0 0.0
2016-Sep-30 16:32N 32°49' E 035°01'0 0.0
2016-Sep-30 14:33N 32°49' E 035°01'0 0.0
2016-Sep-30 13:31N 32°49' E 035°01'0 0.0
2016-Sep-30 10:33N 32°49' E 035°01'0 0.0
2016-Sep-30 08:31N 32°49' E 035°01'0 0.0
2016-Sep-30 06:32N 32°49' E 035°01'0 0.0
2016-Sep-30 03:31N 32°49' E 035°01'0 0.0
2016-Sep-30 02:32N 32°49' E 035°01'0 0.0
2016-Sep-29 23:31N 32°49' E 035°01'0 0.0
2016-Sep-29 21:32N 32°49' E 035°01'1 0.6
2016-Sep-29 20:33N 32°49' E 035°01'3 3.4
2016-Sep-29 19:33N 32°52' E 034°58'1 0.4
2016-Sep-29 16:32N 32°53' E 034°59'0 0.0
2016-Sep-29 13:31N 32°53' E 034°59'0 0.0
2016-Sep-29 08:31N 32°53' E 034°59'0 0.0
2016-Sep-29 07:32N 32°53' E 034°59'  
2016-Sep-25 21:33N 37°56' E 015°36'34 8.4
2016-Sep-25 17:33N 38°27' E 015°54'1 1.0
2016-Sep-25 16:28N 38°28' E 015°54'0 0.0
2016-Sep-25 15:31N 38°28' E 015°54'0 0.0
2016-Sep-25 14:32N 38°28' E 015°54'0 0.0
2016-Sep-25 12:33N 38°28' E 015°54'0 0.0
2016-Sep-25 11:31N 38°28' E 015°54'0 0.0
2016-Sep-25 10:32N 38°28' E 015°54'0 0.0
2016-Sep-25 09:33N 38°28' E 015°54'0 0.0
2016-Sep-25 07:28N 38°28' E 015°54'0 0.0
2016-Sep-25 04:33N 38°28' E 015°54'0 0.0
2016-Sep-25 00:33N 38°28' E 015°54'0 0.0
2016-Sep-24 22:31N 38°28' E 015°54'0 0.0
2016-Sep-24 21:29N 38°28' E 015°54'0 0.0
2016-Sep-24 19:33N 38°28' E 015°54'0 0.0
2016-Sep-24 18:34N 38°28' E 015°54'0 0.0
2016-Sep-24 17:31N 38°28' E 015°54'0 0.0
2016-Sep-24 16:32N 38°28' E 015°54'1 0.7
2016-Sep-24 14:33N 38°27' E 015°53'6 3.1
2016-Sep-24 12:33N 38°31' E 015°48'2 0.9
2016-Sep-24 10:33N 38°31' E 015°45'1 0.7
2016-Sep-24 09:34N 38°30' E 015°45'27 4.6
2016-Sep-24 03:33N 38°03' E 015°36'6 6.1
2016-Sep-24 02:31N 37°57' E 015°37'1111.1
2016-Sep-24 01:33N 37°48' E 015°43'1110.6
2016-Sep-24 00:33N 37°42' E 015°54'  

Dump ship's entire track history